createdAt,value
2023-04-20T00:00:11.802Z,57.89
2023-04-20T00:02:45.534Z,58.15
2023-04-20T00:05:16.260Z,58.10
2023-04-20T00:07:48.807Z,58.23
2023-04-20T00:10:22.090Z,58.71
2023-04-20T00:12:52.420Z,59.24
2023-04-20T00:15:22.822Z,59.81
2023-04-20T00:17:55.746Z,61.12
2023-04-20T00:20:26.144Z,61.57
2023-04-20T00:22:56.440Z,62.15
2023-04-20T00:25:26.683Z,62.51
2023-04-20T00:27:56.964Z,62.83
2023-04-20T00:30:27.681Z,63.26
2023-04-20T00:33:00.584Z,63.96
2023-04-20T00:35:31.864Z,63.70
2023-04-20T00:38:02.512Z,64.04
2023-04-20T00:40:33.729Z,64.61
2023-04-20T00:43:12.759Z,65.07
2023-04-20T00:45:43.221Z,64.94
2023-04-20T00:48:17.052Z,65.32
2023-04-20T00:50:48.589Z,65.97
2023-04-20T00:53:19.702Z,66.11
2023-04-20T00:55:54.041Z,66.03
2023-04-20T00:58:24.754Z,66.06
2023-04-20T01:00:55.133Z,66.50
2023-04-20T01:03:28.523Z,66.56
2023-04-20T01:05:59.091Z,66.74
2023-04-20T01:08:30.326Z,66.67
2023-04-20T01:11:00.680Z,66.96
2023-04-20T01:13:31.062Z,67.33
2023-04-20T01:16:05.090Z,67.69
2023-04-20T01:18:47.547Z,66.75
2023-04-20T01:21:19.544Z,65.93
2023-04-20T01:23:53.168Z,65.11
2023-04-20T01:26:25.012Z,64.90
2023-04-20T01:28:55.835Z,64.20
2023-04-20T01:31:26.124Z,63.35
2023-04-20T01:33:56.315Z,63.15
2023-04-20T01:36:27.406Z,63.04
2023-04-20T01:39:00.309Z,63.22
2023-04-20T01:41:30.684Z,63.05
2023-04-20T01:44:02.123Z,63.48
2023-04-20T01:46:32.497Z,63.56
2023-04-20T01:49:03.300Z,63.44
2023-04-20T01:51:38.250Z,63.70
2023-04-20T01:54:11.108Z,63.56
2023-04-20T01:56:41.363Z,63.15
2023-04-20T01:59:14.681Z,63.20
2023-04-20T02:01:45.401Z,62.63
2023-04-20T02:04:15.904Z,63.06
2023-04-20T02:06:46.204Z,63.06
2023-04-20T02:09:19.486Z,62.47
2023-04-20T02:11:50.090Z,62.35
2023-04-20T02:14:20.362Z,62.57
2023-04-20T02:16:50.830Z,62.57
2023-04-20T02:19:21.510Z,62.33
2023-04-20T02:21:54.486Z,62.37
2023-04-20T02:24:27.466Z,62.64
2023-04-20T02:26:57.737Z,62.87
2023-04-20T02:29:28.141Z,63.39
2023-04-20T02:31:58.675Z,63.67
2023-04-20T02:34:29.037Z,63.72
2023-04-20T02:36:59.280Z,63.75
2023-04-20T02:39:32.321Z,64.50
2023-04-20T02:42:03.060Z,64.65
2023-04-20T02:44:33.280Z,64.47
2023-04-20T02:47:03.455Z,65.04
2023-04-20T02:49:33.754Z,64.94
2023-04-20T02:52:04.834Z,64.68
2023-04-20T02:54:37.728Z,65.16
2023-04-20T02:57:08.006Z,65.02
2023-04-20T02:59:38.303Z,65.61
2023-04-20T03:02:08.837Z,65.96
2023-04-20T03:04:39.578Z,66.72
2023-04-20T03:07:10.397Z,66.77
2023-04-20T03:09:43.385Z,67.45
2023-04-20T03:12:13.792Z,67.47
2023-04-20T03:14:44.025Z,68.00
2023-04-20T03:17:14.307Z,68.03
2023-04-20T03:19:44.667Z,68.51
2023-04-20T03:22:15.045Z,68.39
2023-04-20T03:24:48.237Z,69.08
2023-04-20T03:27:18.508Z,69.18
2023-04-20T03:29:49.105Z,69.13
2023-04-20T03:32:19.480Z,68.92
2023-04-20T03:34:57.049Z,68.55
2023-04-20T03:37:27.377Z,67.86
2023-04-20T03:40:00.624Z,67.70
2023-04-20T03:42:30.910Z,67.72
2023-04-20T03:45:01.523Z,67.66
2023-04-20T03:47:31.860Z,67.61
2023-04-20T03:50:02.191Z,68.00
2023-04-20T03:52:32.738Z,68.55
2023-04-20T03:55:05.658Z,68.09
2023-04-20T03:57:36.711Z,68.08
2023-04-20T04:00:07.973Z,67.09
2023-04-20T04:02:38.787Z,66.37
2023-04-20T04:05:10.451Z,66.75
2023-04-20T04:07:40.844Z,66.48
2023-04-20T04:10:17.067Z,65.89
2023-04-20T04:12:47.882Z,65.91
2023-04-20T04:15:19.467Z,65.31
2023-04-20T04:17:49.891Z,64.98
2023-04-20T04:20:20.221Z,65.17
2023-04-20T04:22:52.318Z,65.62
2023-04-20T04:25:25.557Z,65.35
2023-04-20T04:27:55.883Z,65.43
2023-04-20T04:30:26.434Z,65.27
2023-04-20T04:32:57.056Z,65.41
2023-04-20T04:35:30.711Z,65.33
2023-04-20T04:38:01.246Z,65.07
2023-04-20T04:40:34.210Z,64.72
2023-04-20T04:43:05.099Z,64.10
2023-04-20T04:45:35.368Z,64.04
2023-04-20T04:48:08.062Z,63.44
2023-04-20T04:50:39.274Z,63.25
2023-04-20T04:53:09.550Z,63.42
2023-04-20T04:55:42.402Z,62.52
2023-04-20T04:58:14.961Z,62.21
2023-04-20T05:00:45.256Z,62.00
2023-04-20T05:03:16.345Z,61.17
2023-04-20T05:05:47.199Z,60.16
2023-04-20T05:08:17.488Z,57.21
2023-04-20T05:10:50.731Z,55.02
2023-04-20T05:13:21.287Z,54.97
2023-04-20T05:15:51.555Z,53.37
2023-04-20T05:18:24.680Z,49.97
2023-04-20T05:20:55.398Z,48.09
2023-04-20T05:23:25.779Z,46.32
2023-04-20T05:25:58.640Z,44.42
2023-04-20T05:28:28.998Z,43.57
2023-04-20T05:30:59.300Z,42.35
2023-04-20T05:33:29.946Z,42.18
2023-04-20T05:36:00.942Z,42.78
2023-04-20T05:38:31.339Z,42.53
2023-04-20T05:41:04.980Z,42.55
2023-04-20T05:43:35.385Z,43.04
2023-04-20T05:46:05.706Z,41.72
2023-04-20T05:48:36.134Z,41.13
2023-04-20T05:51:06.478Z,41.63
2023-04-20T05:53:36.753Z,41.42
2023-04-20T05:56:10.912Z,40.87
2023-04-20T05:58:41.559Z,40.72
2023-04-20T06:01:11.833Z,40.91
2023-04-20T06:03:42.643Z,39.91
2023-04-20T06:06:14.887Z,39.79
2023-04-20T06:08:46.770Z,38.93
2023-04-20T06:11:19.646Z,39.07
2023-04-20T06:13:49.930Z,38.45
2023-04-20T06:16:22.762Z,37.23
2023-04-20T06:18:53.169Z,37.23
2023-04-20T06:21:24.789Z,36.54
2023-04-20T06:23:55.141Z,36.41
2023-04-20T06:26:28.118Z,36.85
2023-04-20T06:28:58.345Z,36.73
2023-04-20T06:31:28.618Z,36.15
2023-04-20T06:33:59.418Z,35.38
2023-04-20T06:36:30.075Z,34.92
2023-04-20T06:39:00.544Z,34.96
2023-04-20T06:41:33.648Z,34.18
2023-04-20T06:44:03.971Z,35.65
2023-04-20T06:46:34.392Z,34.28
2023-04-20T06:49:07.254Z,34.83
2023-04-20T06:51:37.570Z,35.19
2023-04-20T06:54:08.504Z,34.98
2023-04-20T06:56:41.324Z,35.83
2023-04-20T06:59:11.705Z,35.66
2023-04-20T07:01:42.292Z,34.82
2023-04-20T07:04:12.768Z,33.75
2023-04-20T07:06:43.119Z,34.16
2023-04-20T07:09:13.385Z,33.60
2023-04-20T07:11:49.220Z,34.63
2023-04-20T07:17:43.449Z,34.42
2023-04-20T07:20:14.349Z,34.93
2023-04-20T07:22:44.838Z,35.61
2023-04-20T07:25:18.221Z,35.81
2023-04-20T07:27:51.136Z,35.81
2023-04-20T07:30:23.533Z,36.75
2023-04-20T07:32:54.036Z,36.64
2023-04-20T07:35:25.049Z,36.04
2023-04-20T07:37:55.955Z,34.66
2023-04-20T07:40:26.730Z,34.61
2023-04-20T07:42:59.862Z,34.28
2023-04-20T07:45:30.569Z,34.36
2023-04-20T07:48:01.764Z,34.69
2023-04-20T07:50:32.193Z,35.29
2023-04-20T07:53:02.500Z,36.46
2023-04-20T07:55:33.295Z,35.26
2023-04-20T07:58:06.347Z,34.89
2023-04-20T08:00:36.704Z,34.83
2023-04-20T08:03:08.473Z,33.91
2023-04-20T08:05:40.993Z,33.19
2023-04-20T08:08:11.327Z,34.23
2023-04-20T08:10:41.626Z,33.43
2023-04-20T08:13:15.482Z,34.19
2023-04-20T08:15:46.101Z,34.31
2023-04-20T08:18:16.369Z,34.16
2023-04-20T08:20:46.669Z,33.43
2023-04-20T08:23:19.262Z,33.32
2023-04-20T08:25:52.332Z,35.08
2023-04-20T08:28:33.313Z,34.68
2023-04-20T08:31:04.602Z,36.20
2023-04-20T08:33:34.882Z,36.88
2023-04-20T08:36:05.243Z,36.87
2023-04-20T08:38:37.900Z,34.92
2023-04-20T08:41:08.667Z,34.29
2023-04-20T08:43:41.884Z,34.62
2023-04-20T08:46:12.773Z,33.64
2023-04-20T08:48:48.763Z,34.31
2023-04-20T08:51:20.344Z,34.24
2023-04-20T08:53:50.981Z,34.23
2023-04-20T08:56:21.481Z,33.81
2023-04-20T08:58:54.754Z,33.98
2023-04-20T09:01:35.682Z,34.19
2023-04-20T09:04:19.817Z,32.99
2023-04-20T09:06:52.145Z,33.62
2023-04-20T09:09:23.838Z,32.68
2023-04-20T09:12:07.541Z,31.08
2023-04-20T09:14:49.103Z,31.15
2023-04-20T09:17:20.557Z,30.40
2023-04-20T09:19:56.690Z,30.40
2023-04-20T09:22:33.055Z,32.23
2023-04-20T09:25:14.850Z,31.91
2023-04-20T09:27:45.134Z,32.06
2023-04-20T09:30:18.474Z,31.72
2023-04-20T09:32:50.436Z,32.61
2023-04-20T09:35:26.154Z,32.87
2023-04-20T09:37:57.051Z,33.64
2023-04-20T09:40:28.686Z,33.23
2023-04-20T09:43:03.273Z,33.53
2023-04-20T09:45:36.970Z,32.75
2023-04-20T09:48:08.366Z,31.82
2023-04-20T09:50:48.361Z,31.65
2023-04-20T09:53:21.085Z,31.39
2023-04-20T09:55:52.712Z,31.54
2023-04-20T09:58:24.011Z,32.86
2023-04-20T10:00:57.440Z,32.60
2023-04-20T10:03:29.001Z,33.63
2023-04-20T10:05:59.704Z,32.71
2023-04-20T10:08:30.144Z,33.06
2023-04-20T10:11:00.587Z,33.57
2023-04-20T10:13:36.544Z,32.03
2023-04-20T10:16:21.150Z,32.20
2023-04-20T10:19:02.966Z,31.71
2023-04-20T10:21:33.578Z,32.82
2023-04-20T10:24:04.469Z,33.15
2023-04-20T10:26:41.319Z,32.31
2023-04-20T10:29:12.730Z,32.45
2023-04-20T10:31:46.043Z,31.90
2023-04-20T10:34:16.684Z,31.87
2023-04-20T10:36:47.142Z,31.47
2023-04-20T10:39:20.017Z,31.59
2023-04-20T10:41:58.718Z,30.07
2023-04-20T10:44:29.603Z,30.96
2023-04-20T10:47:02.812Z,32.20
2023-04-20T10:49:33.614Z,33.32
2023-04-20T10:52:03.981Z,34.05
2023-04-20T10:54:40.781Z,33.64
2023-04-20T10:57:11.094Z,34.27
2023-04-20T10:59:42.374Z,33.45
2023-04-20T11:02:18.069Z,33.20
2023-04-20T11:04:48.866Z,34.32
2023-04-20T11:07:20.432Z,33.94
2023-04-20T11:09:56.941Z,34.10
2023-04-20T11:12:27.318Z,34.57
2023-04-20T11:15:03.317Z,34.29
2023-04-20T11:17:41.164Z,33.84
2023-04-20T11:20:15.896Z,33.46
2023-04-20T11:22:47.465Z,33.07
2023-04-20T11:25:17.727Z,33.33
2023-04-20T11:27:48.049Z,32.14
2023-04-20T11:30:21.405Z,31.50
2023-04-20T11:32:59.263Z,33.00
2023-04-20T11:35:29.669Z,33.26
2023-04-20T11:38:01.040Z,33.92
2023-04-20T11:40:32.712Z,32.87
2023-04-20T11:43:05.028Z,33.11
2023-04-20T11:45:36.979Z,33.07
2023-04-20T11:48:13.093Z,33.79
2023-04-20T11:50:43.476Z,35.48
2023-04-20T11:53:15.011Z,35.11
2023-04-20T11:55:45.296Z,36.36
2023-04-20T11:58:15.852Z,36.33
2023-04-20T12:00:46.136Z,34.74
2023-04-20T12:03:19.476Z,35.21
2023-04-20T12:05:51.604Z,34.64
2023-04-20T12:08:22.028Z,33.05
2023-04-20T12:10:57.362Z,32.90
2023-04-20T12:13:29.055Z,32.72
2023-04-20T12:15:59.397Z,32.77
2023-04-20T12:18:35.295Z,32.71
2023-04-20T12:21:05.999Z,33.39
2023-04-20T12:23:37.126Z,34.25
2023-04-20T12:26:07.764Z,33.14
2023-04-20T12:28:38.501Z,33.83
2023-04-20T12:31:08.918Z,35.81
2023-04-20T12:33:41.850Z,37.29
2023-04-20T12:36:12.573Z,38.33
2023-04-20T12:38:42.873Z,39.40
2023-04-20T12:41:17.652Z,40.95
2023-04-20T12:43:50.301Z,40.47
2023-04-20T12:46:21.005Z,39.18
2023-04-20T12:48:53.845Z,39.34
2023-04-20T12:51:27.402Z,38.54
2023-04-20T12:53:57.662Z,38.41
2023-04-20T12:56:28.068Z,37.35
2023-04-20T12:58:58.540Z,38.00
2023-04-20T13:01:28.857Z,38.15
2023-04-20T13:04:01.932Z,38.23
2023-04-20T13:06:32.958Z,37.34
2023-04-20T13:09:04.271Z,37.11
2023-04-20T13:11:34.538Z,36.11
2023-04-20T13:14:05.235Z,36.68
2023-04-20T13:16:35.652Z,36.82
2023-04-20T13:19:08.537Z,35.81
2023-04-20T13:21:39.001Z,36.57
2023-04-20T13:24:09.901Z,35.84
2023-04-20T13:26:42.347Z,36.86
2023-04-20T13:29:12.611Z,37.08
2023-04-20T13:31:43.552Z,36.61
2023-04-20T13:34:16.593Z,37.41
2023-04-20T13:36:47.245Z,37.65
2023-04-20T13:39:20.274Z,36.54
2023-04-20T13:41:51.944Z,36.72
2023-04-20T13:44:22.298Z,37.09
2023-04-20T13:46:52.697Z,36.88
2023-04-20T13:49:25.534Z,36.13
2023-04-20T13:51:56.889Z,36.55
2023-04-20T13:54:27.117Z,34.91
2023-04-20T13:56:58.131Z,34.19
2023-04-20T13:59:28.758Z,34.70
2023-04-20T14:01:59.039Z,35.22
2023-04-20T14:04:32.001Z,35.23
2023-04-20T14:07:02.278Z,34.98
2023-04-20T14:09:34.150Z,35.28
2023-04-20T14:12:04.508Z,36.82
2023-04-20T14:14:34.735Z,36.91
2023-04-20T14:17:05.159Z,37.29
2023-04-20T14:19:38.042Z,39.30
2023-04-20T14:22:08.416Z,41.04
2023-04-20T14:24:38.639Z,42.07
2023-04-20T14:27:08.963Z,42.91
2023-04-20T14:29:39.341Z,43.52
2023-04-20T14:32:09.745Z,45.45
2023-04-20T14:34:42.611Z,42.72
2023-04-20T14:37:12.907Z,46.12
2023-04-20T14:39:43.254Z,44.33
2023-04-20T14:42:14.485Z,40.83
2023-04-20T14:44:48.078Z,46.87
2023-04-20T14:47:18.473Z,48.15
2023-04-20T14:49:51.484Z,49.31
2023-04-20T14:52:21.998Z,51.72
2023-04-20T14:54:52.422Z,50.37
2023-04-20T14:57:22.977Z,53.04
2023-04-20T14:59:53.459Z,53.39
2023-04-20T15:02:23.982Z,54.24
2023-04-20T15:05:01.202Z,54.55
2023-04-20T15:07:31.756Z,55.06
2023-04-20T15:10:02.994Z,56.47
2023-04-20T15:12:33.496Z,56.26
2023-04-20T15:15:03.825Z,56.08
2023-04-20T15:17:34.297Z,54.28
2023-04-20T15:20:08.864Z,54.25
2023-04-20T15:22:40.139Z,53.64
2023-04-20T15:25:11.654Z,54.33
2023-04-20T15:27:46.958Z,55.25
2023-04-20T15:30:17.681Z,55.70
2023-04-20T15:32:48.225Z,54.19
2023-04-20T15:35:21.296Z,55.24
2023-04-20T15:37:51.562Z,53.50
2023-04-20T15:40:22.197Z,53.77
2023-04-20T15:42:52.896Z,52.71
2023-04-20T15:45:23.190Z,53.08
2023-04-20T15:47:54.035Z,53.38
2023-04-20T15:50:27.440Z,53.36
2023-04-20T15:52:57.883Z,51.01
2023-04-20T15:55:34.769Z,49.37
2023-04-20T15:58:05.053Z,48.02
2023-04-20T16:00:35.572Z,45.63
2023-04-20T16:03:08.732Z,44.54
2023-04-20T16:05:41.827Z,44.54
2023-04-20T16:08:13.350Z,43.25
2023-04-20T16:10:44.008Z,43.42
2023-04-20T16:13:14.530Z,42.49
2023-04-20T16:15:45.120Z,42.99
2023-04-20T16:18:27.367Z,42.71
2023-04-20T16:21:00.492Z,41.83
2023-04-20T16:23:31.774Z,41.93
2023-04-20T16:26:02.326Z,41.68
2023-04-20T16:28:33.446Z,41.82
2023-04-20T16:31:04.051Z,41.79
2023-04-20T16:33:34.882Z,42.26
2023-04-20T16:36:08.569Z,41.21
2023-04-20T16:38:38.655Z,40.27
2023-04-20T16:41:10.833Z,40.73
2023-04-20T16:43:41.323Z,40.75
2023-04-20T16:46:16.698Z,41.00
2023-04-20T16:48:47.087Z,40.30
2023-04-20T16:51:20.107Z,40.22
2023-04-20T16:53:50.418Z,40.61
2023-04-20T16:56:22.199Z,39.87
2023-04-20T16:58:52.782Z,40.05
2023-04-20T17:01:23.495Z,40.58
2023-04-20T17:03:54.092Z,39.60
2023-04-20T17:06:27.758Z,40.98
2023-04-20T17:09:05.547Z,41.01
2023-04-20T17:11:40.716Z,41.64
2023-04-20T17:14:13.689Z,42.02
2023-04-20T17:16:44.133Z,41.45
2023-04-20T17:19:14.515Z,40.91
2023-04-20T17:21:47.678Z,41.01
2023-04-20T17:24:21.266Z,40.76
2023-04-20T17:26:52.431Z,41.00
2023-04-20T17:29:22.775Z,40.33
2023-04-20T17:31:53.185Z,41.43
2023-04-20T17:34:24.044Z,41.16
2023-04-20T17:36:59.968Z,40.67
2023-04-20T17:39:30.452Z,40.60
2023-04-20T17:42:01.664Z,39.68
2023-04-20T17:44:31.929Z,40.37
2023-04-20T17:47:21.629Z,40.37
2023-04-20T17:49:52.267Z,39.66
2023-04-20T17:52:27.178Z,39.14
2023-04-20T17:54:57.847Z,39.10
2023-04-20T17:57:28.134Z,38.79
2023-04-20T17:59:58.515Z,38.77
2023-04-20T18:02:29.081Z,38.11
2023-04-20T18:05:01.163Z,38.29
2023-04-20T18:07:34.252Z,38.85
2023-04-20T18:10:05.024Z,38.64
2023-04-20T18:12:35.457Z,38.58
2023-04-20T18:15:08.082Z,39.25
2023-04-20T18:17:41.059Z,39.53
2023-04-20T18:20:12.268Z,38.82
2023-04-20T18:22:50.534Z,39.02
2023-04-20T18:25:24.590Z,39.09
2023-04-20T18:27:54.661Z,39.10
2023-04-20T18:30:25.094Z,39.39
2023-04-20T18:32:55.465Z,39.98
2023-04-20T18:35:28.812Z,39.38
2023-04-20T18:38:01.775Z,39.58
2023-04-20T18:40:32.670Z,39.70
2023-04-20T18:43:03.142Z,39.42
2023-04-20T18:45:34.344Z,38.95
2023-04-20T18:48:06.896Z,39.16
2023-04-20T18:50:37.844Z,39.36
2023-04-20T18:53:10.778Z,38.93
2023-04-20T18:55:43.065Z,39.54
2023-04-20T18:58:13.314Z,39.57
2023-04-20T19:00:49.684Z,39.44
2023-04-20T19:03:20.449Z,38.91
2023-04-20T19:05:53.199Z,38.72
2023-04-20T19:08:28.022Z,39.34
2023-04-20T19:10:59.281Z,38.89
2023-04-20T19:13:29.810Z,39.19
2023-04-20T19:16:01.222Z,38.65
2023-04-20T19:18:31.565Z,38.47
2023-04-20T19:21:04.117Z,38.75
2023-04-20T19:23:37.588Z,38.40
2023-04-20T19:26:07.956Z,38.52
2023-04-20T19:28:38.363Z,38.68
2023-04-20T19:31:09.645Z,38.69
2023-04-20T19:33:40.384Z,38.32
2023-04-20T19:36:10.834Z,39.23
2023-04-20T19:38:43.820Z,39.12
2023-04-20T19:41:14.170Z,38.57
2023-04-20T19:43:44.436Z,38.82
2023-04-20T19:46:16.854Z,38.78
2023-04-20T19:48:47.409Z,39.23
2023-04-20T19:51:19.414Z,38.87
2023-04-20T19:53:52.353Z,38.62
2023-04-20T19:56:22.674Z,38.57
2023-04-20T19:58:53.384Z,38.67
2023-04-20T20:01:26.434Z,38.86
2023-04-20T20:03:57.459Z,38.73
2023-04-20T20:06:27.989Z,38.76
2023-04-20T20:09:01.121Z,38.67
2023-04-20T20:11:31.793Z,38.98
2023-04-20T20:14:02.134Z,38.56
2023-04-20T20:16:32.425Z,39.52
2023-04-20T20:19:02.753Z,39.05
2023-04-20T20:21:32.996Z,39.57
2023-04-20T20:24:06.097Z,39.52
2023-04-20T20:26:39.010Z,40.31
2023-04-20T20:29:09.478Z,40.85
2023-04-20T20:31:39.813Z,41.26
2023-04-20T20:34:10.186Z,41.13
2023-04-20T20:36:42.744Z,41.35
2023-04-20T20:39:16.186Z,41.50
2023-04-20T20:41:46.760Z,41.79
2023-04-20T20:44:18.039Z,42.08
2023-04-20T20:46:48.789Z,42.50
2023-04-20T20:49:19.374Z,42.25
2023-04-20T20:51:49.807Z,42.86
2023-04-20T20:54:22.865Z,43.34
2023-04-20T20:56:53.186Z,43.33
2023-04-20T20:59:26.236Z,43.69
2023-04-20T21:01:56.883Z,43.58
2023-04-20T21:04:27.524Z,43.89
2023-04-20T21:06:57.850Z,44.55
2023-04-20T21:09:30.721Z,44.96
2023-04-20T21:12:01.479Z,45.09
2023-04-20T21:14:31.732Z,45.96
2023-04-20T21:17:02.308Z,46.15
2023-04-20T21:19:32.674Z,46.46
2023-04-20T21:22:02.906Z,46.33
2023-04-20T21:24:35.786Z,46.58
2023-04-20T21:27:06.116Z,46.58
2023-04-20T21:29:36.425Z,46.51
2023-04-20T21:32:07.437Z,46.51
2023-04-20T21:34:37.769Z,46.16
2023-04-20T21:37:11.314Z,46.79
2023-04-20T21:39:44.275Z,47.30
2023-04-20T21:42:14.622Z,47.85
2023-04-20T21:44:45.002Z,47.31
2023-04-20T21:47:15.260Z,47.57
2023-04-20T21:49:45.650Z,48.01
2023-04-20T21:52:15.895Z,47.88
2023-04-20T21:54:49.108Z,47.66
2023-04-20T21:57:19.410Z,47.98
2023-04-20T21:59:49.683Z,47.89
2023-04-20T22:02:20.225Z,48.23
2023-04-20T22:04:51.253Z,48.58
2023-04-20T22:07:24.175Z,48.74
2023-04-20T22:09:57.108Z,49.12
2023-04-20T22:12:39.292Z,49.40
2023-04-20T22:15:15.304Z,50.01
2023-04-20T22:17:48.175Z,49.88
2023-04-20T22:20:20.089Z,49.58
2023-04-20T22:22:50.534Z,50.48
2023-04-20T22:25:24.831Z,50.88
2023-04-20T22:27:55.681Z,50.68
2023-04-20T22:30:26.427Z,51.14
2023-04-20T22:32:56.946Z,51.78
2023-04-20T22:35:27.243Z,51.72
2023-04-20T22:37:57.492Z,52.46
2023-04-20T22:40:30.710Z,52.09
2023-04-20T22:43:00.989Z,52.55
2023-04-20T22:45:31.578Z,52.70
2023-04-20T22:48:01.874Z,52.81
2023-04-20T22:50:32.169Z,53.11
2023-04-20T22:53:02.414Z,53.37
2023-04-20T22:55:35.342Z,53.44
2023-04-20T22:58:05.549Z,53.81
2023-04-20T23:00:36.048Z,53.89
2023-04-20T23:03:06.500Z,54.54
2023-04-20T23:05:37.005Z,54.54
2023-04-20T23:08:07.382Z,54.91
2023-04-20T23:10:41.086Z,54.96
2023-04-20T23:13:17.055Z,54.84
2023-04-20T23:15:47.347Z,55.27
2023-04-20T23:18:17.690Z,55.23
2023-04-20T23:20:48.001Z,55.41
2023-04-20T23:23:18.328Z,55.70
2023-04-20T23:25:51.285Z,55.51
2023-04-20T23:28:21.787Z,55.87
2023-04-20T23:30:55.113Z,56.00
2023-04-20T23:33:25.540Z,55.93
2023-04-20T23:35:55.919Z,55.83
2023-04-20T23:38:29.072Z,55.81
2023-04-20T23:41:04.969Z,56.30
2023-04-20T23:43:35.218Z,56.77
2023-04-20T23:46:05.916Z,56.31
2023-04-20T23:48:36.978Z,56.39
2023-04-20T23:51:08.034Z,56.70
2023-04-20T23:53:39.373Z,56.79
2023-04-20T23:56:12.722Z,56.87
2023-04-20T23:58:43.045Z,57.08
